sensor_id;sensor_type;location;lat;lon;timestamp;pressure;altitude;pressure_sealevel;temperature;humidity
26978;BME280;56314;48.088;11.642;2023-02-28T00:00:13;95877.59;;;-3.45;74.86
26978;BME280;56314;48.088;11.642;2023-02-28T00:02:40;95870.81;;;-3.51;74.46
26978;BME280;56314;48.088;11.642;2023-02-28T00:05:07;95873.34;;;-3.48;74.75
26978;BME280;56314;48.088;11.642;2023-02-28T00:07:33;95868.13;;;-3.43;74.07
26978;BME280;56314;48.088;11.642;2023-02-28T00:09:58;95874.16;;;-3.44;74.45
26978;BME280;56314;48.088;11.642;2023-02-28T00:12:27;95869.97;;;-3.53;74.03
26978;BME280;56314;48.088;11.642;2023-02-28T00:14:52;95868.31;;;-3.56;73.97
26978;BME280;56314;48.088;11.642;2023-02-28T00:17:18;95862.34;;;-3.56;74.00
26978;BME280;56314;48.088;11.642;2023-02-28T00:19:47;95866.66;;;-3.58;74.51
26978;BME280;56314;48.088;11.642;2023-02-28T00:22:13;95863.16;;;-3.54;74.38
26978;BME280;56314;48.088;11.642;2023-02-28T00:24:38;95861.59;;;-3.64;74.32
26978;BME280;56314;48.088;11.642;2023-02-28T00:27:03;95860.66;;;-3.57;74.07
26978;BME280;56314;48.088;11.642;2023-02-28T00:29:29;95858.03;;;-3.56;74.52
26978;BME280;56314;48.088;11.642;2023-02-28T00:31:54;95856.53;;;-3.69;74.81
26978;BME280;56314;48.088;11.642;2023-02-28T00:34:19;95848.75;;;-3.64;74.63
26978;BME280;56314;48.088;11.642;2023-02-28T00:36:44;95843.69;;;-3.69;74.32
26978;BME280;56314;48.088;11.642;2023-02-28T00:39:14;95843.69;;;-3.69;74.28
26978;BME280;56314;48.088;11.642;2023-02-28T00:41:39;95854.06;;;-3.75;74.95
26978;BME280;56314;48.088;11.642;2023-02-28T00:44:04;95854.97;;;-3.82;74.89
26978;BME280;56314;48.088;11.642;2023-02-28T00:46:30;95851.44;;;-3.74;74.99
26978;BME280;56314;48.088;11.642;2023-02-28T00:48:55;95853.19;;;-3.74;75.24
26978;BME280;56314;48.088;11.642;2023-02-28T00:51:20;95851.47;;;-3.77;75.62
26978;BME280;56314;48.088;11.642;2023-02-28T00:53:46;95857.56;;;-3.82;75.38
26978;BME280;56314;48.088;11.642;2023-02-28T00:56:11;95848.16;;;-3.83;75.18
26978;BME280;56314;48.088;11.642;2023-02-28T00:58:36;95851.41;;;-3.72;75.25
26978;BME280;56314;48.088;11.642;2023-02-28T01:01:02;95851.53;;;-3.78;74.68
26978;BME280;56314;48.088;11.642;2023-02-28T01:03:27;95855.00;;;-3.84;75.41
26978;BME280;56314;48.088;11.642;2023-02-28T01:05:53;95849.84;;;-3.82;75.83
26978;BME280;56314;48.088;11.642;2023-02-28T01:08:18;95849.84;;;-3.82;75.39
26978;BME280;56314;48.088;11.642;2023-02-28T01:10:44;95848.16;;;-3.83;75.49
26978;BME280;56314;48.088;11.642;2023-02-28T01:13:11;95843.88;;;-3.84;75.51
26978;BME280;56314;48.088;11.642;2023-02-28T01:15:36;95842.16;;;-3.82;76.41
26978;BME280;56314;48.088;11.642;2023-02-28T01:18:02;95843.88;;;-3.84;75.90
26978;BME280;56314;48.088;11.642;2023-02-28T01:20:27;95836.31;;;-3.92;76.31
26978;BME280;56314;48.088;11.642;2023-02-28T01:22:53;95839.75;;;-3.95;77.08
26978;BME280;56314;48.088;11.642;2023-02-28T01:25:18;95836.38;;;-3.98;76.93
26978;BME280;56314;48.088;11.642;2023-02-28T01:27:43;95834.63;;;-3.93;77.14
26978;BME280;56314;48.088;11.642;2023-02-28T01:30:09;95833.75;;;-3.92;76.53
26978;BME280;56314;48.088;11.642;2023-02-28T01:32:35;95830.38;;;-3.97;77.15
26978;BME280;56314;48.088;11.642;2023-02-28T01:35:01;95831.25;;;-3.97;77.14
26978;BME280;56314;48.088;11.642;2023-02-28T01:37:29;95826.09;;;-3.95;77.38
26978;BME280;56314;48.088;11.642;2023-02-28T01:39:55;95827.78;;;-3.94;76.99
26978;BME280;56314;48.088;11.642;2023-02-28T01:42:20;95819.22;;;-3.95;77.03
26978;BME280;56314;48.088;11.642;2023-02-28T01:45:01;95824.41;;;-3.98;77.18
26978;BME280;56314;48.088;11.642;2023-02-28T01:47:33;95818.28;;;-3.89;77.50
26978;BME280;56314;48.088;11.642;2023-02-28T01:50:02;95823.59;;;-4.00;77.18
26978;BME280;56314;48.088;11.642;2023-02-28T01:52:30;95815.91;;;-4.03;78.04
26978;BME280;56314;48.088;11.642;2023-02-28T01:54:59;95809.13;;;-4.07;77.97
26978;BME280;56314;48.088;11.642;2023-02-28T01:57:34;95816.81;;;-4.06;77.74
26978;BME280;56314;48.088;11.642;2023-02-28T02:00:24;95823.72;;;-4.09;78.37
26978;BME280;56314;48.088;11.642;2023-02-28T02:02:54;95815.88;;;-4.02;78.47
26978;BME280;56314;48.088;11.642;2023-02-28T02:05:26;95809.94;;;-4.02;78.08
26978;BME280;56314;48.088;11.642;2023-02-28T02:07:56;95811.75;;;-4.10;77.66
26978;BME280;56314;48.088;11.642;2023-02-28T02:19:08;95806.69;;;-4.17;78.63
26978;BME280;56314;48.088;11.642;2023-02-28T02:24:52;95811.00;;;-4.20;79.29
26978;BME280;56314;48.088;11.642;2023-02-28T02:30:32;95804.97;;;-4.18;78.70
26978;BME280;56314;48.088;11.642;2023-02-28T02:33:16;95801.72;;;-4.27;79.40
26978;BME280;56314;48.088;11.642;2023-02-28T02:38:39;95808.53;;;-4.28;79.72
26978;BME280;56314;48.088;11.642;2023-02-28T02:41:28;95805.19;;;-4.33;79.35
26978;BME280;56314;48.088;11.642;2023-02-28T02:44:36;95798.22;;;-4.23;79.28
26978;BME280;56314;48.088;11.642;2023-02-28T02:47:05;95798.19;;;-4.20;79.61
26978;BME280;56314;48.088;11.642;2023-02-28T02:49:32;95800.00;;;-4.28;79.63
26978;BME280;56314;48.088;11.642;2023-02-28T02:52:07;95796.59;;;-4.30;80.44
26978;BME280;56314;48.088;11.642;2023-02-28T02:54:40;95801.81;;;-4.38;80.50
26978;BME280;56314;48.088;11.642;2023-02-28T02:57:10;95800.97;;;-4.39;80.33
26978;BME280;56314;48.088;11.642;2023-02-28T02:59:39;95797.38;;;-4.25;80.36
26978;BME280;56314;48.088;11.642;2023-02-28T03:02:08;95793.28;;;-4.37;80.61
26978;BME280;56314;48.088;11.642;2023-02-28T03:04:47;95792.41;;;-4.38;80.71
26978;BME280;56314;48.088;11.642;2023-02-28T03:07:14;95800.13;;;-4.39;81.18
26978;BME280;56314;48.088;11.642;2023-02-28T03:09:39;95794.03;;;-4.32;80.88
26978;BME280;56314;48.088;11.642;2023-02-28T03:12:09;95795.84;;;-4.39;80.76
26978;BME280;56314;48.088;11.642;2023-02-28T03:15:08;95794.13;;;-4.38;81.59
26978;BME280;56314;48.088;11.642;2023-02-28T03:18:09;95791.47;;;-4.32;80.84
26978;BME280;56314;48.088;11.642;2023-02-28T03:23:45;95795.88;;;-4.43;81.80
26978;BME280;56314;48.088;11.642;2023-02-28T03:26:22;95792.59;;;-4.52;82.31
26978;BME280;56314;48.088;11.642;2023-02-28T03:29:05;95796.91;;;-4.57;82.20
26978;BME280;56314;48.088;11.642;2023-02-28T03:31:38;95789.13;;;-4.49;81.89
26978;BME280;56314;48.088;11.642;2023-02-28T03:37:00;95798.53;;;-4.50;82.32
26978;BME280;56314;48.088;11.642;2023-02-28T03:39:28;95794.25;;;-4.47;82.57
26978;BME280;56314;48.088;11.642;2023-02-28T03:42:02;95795.94;;;-4.48;82.32
26978;BME280;56314;48.088;11.642;2023-02-28T03:44:38;95790.00;;;-4.50;82.62
26978;BME280;56314;48.088;11.642;2023-02-28T03:47:22;95797.59;;;-4.41;82.50
26978;BME280;56314;48.088;11.642;2023-02-28T03:49:57;95801.09;;;-4.50;82.67
26978;BME280;56314;48.088;11.642;2023-02-28T03:52:27;95801.06;;;-4.48;83.32
26978;BME280;56314;48.088;11.642;2023-02-28T03:54:56;95801.16;;;-4.56;83.30
26978;BME280;56314;48.088;11.642;2023-02-28T03:57:38;95804.50;;;-4.49;83.10
26978;BME280;56314;48.088;11.642;2023-02-28T04:00:14;95803.72;;;-4.54;83.51
26978;BME280;56314;48.088;11.642;2023-02-28T04:02:43;95801.13;;;-4.51;83.78
26978;BME280;56314;48.088;11.642;2023-02-28T04:05:08;95807.09;;;-4.51;83.25
26978;BME280;56314;48.088;11.642;2023-02-28T04:07:34;95812.25;;;-4.52;83.32
26978;BME280;56314;48.088;11.642;2023-02-28T04:10:03;95814.88;;;-4.58;84.29
26978;BME280;56314;48.088;11.642;2023-02-28T04:12:28;95819.91;;;-4.51;84.05
26978;BME280;56314;48.088;11.642;2023-02-28T04:14:56;95835.34;;;-4.57;84.40
26978;BME280;56314;48.088;11.642;2023-02-28T04:17:22;95824.16;;;-4.48;84.78
26978;BME280;56314;48.088;11.642;2023-02-28T04:19:47;95824.19;;;-4.51;84.18
26978;BME280;56314;48.088;11.642;2023-02-28T04:22:15;95824.22;;;-4.54;84.10
26978;BME280;56314;48.088;11.642;2023-02-28T04:24:42;95832.78;;;-4.57;84.79
26978;BME280;56314;48.088;11.642;2023-02-28T04:27:08;95838.75;;;-4.53;84.14
26978;BME280;56314;48.088;11.642;2023-02-28T04:29:33;95838.81;;;-4.58;84.37
26978;BME280;56314;48.088;11.642;2023-02-28T04:32:00;95837.97;;;-4.60;84.87
26978;BME280;56314;48.088;11.642;2023-02-28T04:34:26;95841.25;;;-4.49;83.86
26978;BME280;56314;48.088;11.642;2023-02-28T04:36:52;95844.75;;;-4.57;84.58
26978;BME280;56314;48.088;11.642;2023-02-28T04:39:24;95843.88;;;-4.55;85.09
26978;BME280;56314;48.088;11.642;2023-02-28T04:41:49;95835.25;;;-4.49;84.50
26978;BME280;56314;48.088;11.642;2023-02-28T04:44:15;95840.38;;;-4.49;84.58
26978;BME280;56314;48.088;11.642;2023-02-28T04:46:41;95829.31;;;-4.50;85.05
26978;BME280;56314;48.088;11.642;2023-02-28T04:49:08;95839.59;;;-4.51;84.72
26978;BME280;56314;48.088;11.642;2023-02-28T04:51:34;95840.44;;;-4.52;84.87
26978;BME280;56314;48.088;11.642;2023-02-28T04:54:00;95840.38;;;-4.46;85.20
26978;BME280;56314;48.088;11.642;2023-02-28T04:56:27;95828.44;;;-4.50;85.02
26978;BME280;56314;48.088;11.642;2023-02-28T04:58:53;95841.25;;;-4.50;85.51
26978;BME280;56314;48.088;11.642;2023-02-28T05:01:29;95852.41;;;-4.51;85.87
26978;BME280;56314;48.088;11.642;2023-02-28T05:03:57;95841.31;;;-4.55;85.33
26978;BME280;56314;48.088;11.642;2023-02-28T05:06:27;95847.28;;;-4.53;86.00
26978;BME280;56314;48.088;11.642;2023-02-28T05:08:53;95860.97;;;-4.52;85.80
26978;BME280;56314;48.088;11.642;2023-02-28T05:11:19;95854.13;;;-4.53;86.07
26978;BME280;56314;48.088;11.642;2023-02-28T05:13:46;95858.41;;;-4.55;86.69
26978;BME280;56314;48.088;11.642;2023-02-28T05:16:11;95858.34;;;-4.47;86.91
26978;BME280;56314;48.088;11.642;2023-02-28T05:18:37;95858.25;;;-4.41;86.43
26978;BME280;56314;48.088;11.642;2023-02-28T05:21:02;95853.06;;;-4.37;86.27
26978;BME280;56314;48.088;11.642;2023-02-28T05:23:28;95856.38;;;-4.25;86.33
26978;BME280;56314;48.088;11.642;2023-02-28T05:25:53;95860.50;;;-4.13;85.83
26978;BME280;56314;48.088;11.642;2023-02-28T05:28:19;95854.47;;;-4.08;85.40
26978;BME280;56314;48.088;11.642;2023-02-28T05:30:44;95862.09;;;-4.03;85.43
26978;BME280;56314;48.088;11.642;2023-02-28T05:33:11;95860.28;;;-3.95;84.73
26978;BME280;56314;48.088;11.642;2023-02-28T05:35:41;95864.47;;;-3.89;85.38
26978;BME280;56314;48.088;11.642;2023-02-28T05:38:08;95862.84;;;-3.95;84.92
26978;BME280;56314;48.088;11.642;2023-02-28T05:40:33;95861.97;;;-3.92;85.56
26978;BME280;56314;48.088;11.642;2023-02-28T05:42:58;95861.91;;;-3.88;85.12
26978;BME280;56314;48.088;11.642;2023-02-28T05:45:24;95863.50;;;-3.80;85.39
26978;BME280;56314;48.088;11.642;2023-02-28T05:47:53;95857.38;;;-3.68;84.37
26978;BME280;56314;48.088;11.642;2023-02-28T05:50:19;95861.72;;;-3.74;84.51
26978;BME280;56314;48.088;11.642;2023-02-28T05:52:44;95865.16;;;-3.73;85.35
26978;BME280;56314;48.088;11.642;2023-02-28T05:55:09;95863.38;;;-3.71;84.65
26978;BME280;56314;48.088;11.642;2023-02-28T05:57:34;95864.22;;;-3.67;84.17
26978;BME280;56314;48.088;11.642;2023-02-28T06:00:00;95875.28;;;-3.65;83.47
26978;BME280;56314;48.088;11.642;2023-02-28T06:02:25;95871.75;;;-3.55;83.30
26978;BME280;56314;48.088;11.642;2023-02-28T06:04:51;95876.09;;;-3.60;83.18
26978;BME280;56314;48.088;11.642;2023-02-28T06:07:16;95878.53;;;-3.51;82.25
26978;BME280;56314;48.088;11.642;2023-02-28T06:09:42;95871.69;;;-3.50;81.95
26978;BME280;56314;48.088;11.642;2023-02-28T06:12:09;95878.44;;;-3.45;82.80
26978;BME280;56314;48.088;11.642;2023-02-28T06:14:35;95875.88;;;-3.45;81.66
26978;BME280;56314;48.088;11.642;2023-02-28T06:17:04;95883.56;;;-3.43;81.93
26978;BME280;56314;48.088;11.642;2023-02-28T06:19:29;95888.69;;;-3.43;81.66
26978;BME280;56314;48.088;11.642;2023-02-28T06:21:55;95892.94;;;-3.42;81.29
26978;BME280;56314;48.088;11.642;2023-02-28T06:24:23;95887.72;;;-3.36;81.39
26978;BME280;56314;48.088;11.642;2023-02-28T06:26:49;95894.66;;;-3.41;81.38
26978;BME280;56314;48.088;11.642;2023-02-28T06:29:14;95901.50;;;-3.40;81.74
26978;BME280;56314;48.088;11.642;2023-02-28T06:31:44;95885.91;;;-3.28;81.22
26978;BME280;56314;48.088;11.642;2023-02-28T06:34:10;95902.25;;;-3.35;80.46
26978;BME280;56314;48.088;11.642;2023-02-28T06:36:38;95896.19;;;-3.28;80.38
26978;BME280;56314;48.088;11.642;2023-02-28T06:39:07;95896.09;;;-3.25;80.63
26978;BME280;56314;48.088;11.642;2023-02-28T06:41:33;95897.72;;;-3.17;80.47
26978;BME280;56314;48.088;11.642;2023-02-28T06:44:10;95905.41;;;-3.16;79.17
26978;BME280;56314;48.088;11.642;2023-02-28T06:46:36;95902.84;;;-3.16;80.07
26978;BME280;56314;48.088;11.642;2023-02-28T06:49:03;95907.00;;;-3.07;80.06
26978;BME280;56314;48.088;11.642;2023-02-28T06:51:29;95906.97;;;-3.04;79.28
26978;BME280;56314;48.088;11.642;2023-02-28T06:53:54;95915.50;;;-3.03;78.45
26978;BME280;56314;48.088;11.642;2023-02-28T06:56:20;95918.09;;;-3.06;79.37
26978;BME280;56314;48.088;11.642;2023-02-28T06:58:47;95906.84;;;-2.98;78.72
26978;BME280;56314;48.088;11.642;2023-02-28T07:01:13;95913.72;;;-3.00;79.31
26978;BME280;56314;48.088;11.642;2023-02-28T07:03:39;95921.47;;;-3.01;78.30
26978;BME280;56314;48.088;11.642;2023-02-28T07:06:05;95924.75;;;-2.91;78.46
26978;BME280;56314;48.088;11.642;2023-02-28T07:08:31;95927.25;;;-2.88;77.96
26978;BME280;56314;48.088;11.642;2023-02-28T07:10:57;95931.59;;;-2.90;78.44
26978;BME280;56314;48.088;11.642;2023-02-28T07:13:23;95935.03;;;-2.91;78.96
26978;BME280;56314;48.088;11.642;2023-02-28T07:15:57;95929.03;;;-2.90;77.63
26978;BME280;56314;48.088;11.642;2023-02-28T07:18:22;95938.50;;;-2.96;78.42
26978;BME280;56314;48.088;11.642;2023-02-28T07:20:48;95938.72;;;-3.10;77.99
26978;BME280;56314;48.088;11.642;2023-02-28T07:23:13;95931.78;;;-3.03;78.45
26978;BME280;56314;48.088;11.642;2023-02-28T07:25:39;95934.25;;;-2.97;79.11
26978;BME280;56314;48.088;11.642;2023-02-28T07:28:04;95934.19;;;-2.94;77.93
26978;BME280;56314;48.088;11.642;2023-02-28T07:30:30;95932.66;;;-3.04;79.12
26978;BME280;56314;48.088;11.642;2023-02-28T07:32:55;95934.16;;;-2.92;79.15
26978;BME280;56314;48.088;11.642;2023-02-28T07:35:23;95930.53;;;-2.79;78.16
26978;BME280;56314;48.088;11.642;2023-02-28T07:37:48;95937.28;;;-2.73;77.37
26978;BME280;56314;48.088;11.642;2023-02-28T07:40:14;95935.53;;;-2.69;77.92
26978;BME280;56314;48.088;11.642;2023-02-28T07:42:41;95937.34;;;-2.74;76.79
26978;BME280;56314;48.088;11.642;2023-02-28T07:45:10;95930.41;;;-2.71;76.37
26978;BME280;56314;48.088;11.642;2023-02-28T07:47:37;95932.22;;;-2.78;76.84
26978;BME280;56314;48.088;11.642;2023-02-28T07:50:04;95924.44;;;-2.73;76.31
26978;BME280;56314;48.088;11.642;2023-02-28T07:52:30;95926.09;;;-2.70;76.63
26978;BME280;56314;48.088;11.642;2023-02-28T07:54:55;95933.81;;;-2.69;76.24
26978;BME280;56314;48.088;11.642;2023-02-28T07:57:20;95933.91;;;-2.75;76.93
26978;BME280;56314;48.088;11.642;2023-02-28T07:59:46;95935.56;;;-2.71;76.38
26978;BME280;56314;48.088;11.642;2023-02-28T08:02:16;95940.53;;;-2.61;75.70
26978;BME280;56314;48.088;11.642;2023-02-28T08:04:41;95940.56;;;-2.63;75.08
26978;BME280;56314;48.088;11.642;2023-02-28T08:07:07;95937.09;;;-2.60;75.23
26978;BME280;56314;48.088;11.642;2023-02-28T08:09:33;95939.19;;;-2.84;76.22
26978;BME280;56314;48.088;11.642;2023-02-28T08:11:59;95941.59;;;-2.73;76.85
26978;BME280;56314;48.088;11.642;2023-02-28T08:14:24;95948.66;;;-2.86;76.77
26978;BME280;56314;48.088;11.642;2023-02-28T08:16:53;95945.81;;;-2.69;77.18
26978;BME280;56314;48.088;11.642;2023-02-28T08:19:19;95946.00;;;-2.80;76.69
26978;BME280;56314;48.088;11.642;2023-02-28T08:21:44;95952.63;;;-2.67;76.74
26978;BME280;56314;48.088;11.642;2023-02-28T08:24:10;95946.78;;;-2.76;75.90
26978;BME280;56314;48.088;11.642;2023-02-28T08:26:35;95950.03;;;-2.65;75.72
26978;BME280;56314;48.088;11.642;2023-02-28T08:29:00;95958.56;;;-2.63;76.21
26978;BME280;56314;48.088;11.642;2023-02-28T08:31:26;95961.09;;;-2.60;76.15
26978;BME280;56314;48.088;11.642;2023-02-28T08:33:51;95947.31;;;-2.56;74.92
26978;BME280;56314;48.088;11.642;2023-02-28T08:36:18;95954.06;;;-2.49;75.46
26978;BME280;56314;48.088;11.642;2023-02-28T08:38:44;95958.53;;;-2.60;75.42
26978;BME280;56314;48.088;11.642;2023-02-28T08:41:11;95958.22;;;-2.41;75.50
26978;BME280;56314;48.088;11.642;2023-02-28T08:43:40;95959.69;;;-2.28;75.16
26978;BME280;56314;48.088;11.642;2023-02-28T08:46:06;95965.84;;;-2.35;74.27
26978;BME280;56314;48.088;11.642;2023-02-28T08:48:33;95961.41;;;-2.28;75.75
26978;BME280;56314;48.088;11.642;2023-02-28T08:51:05;95966.34;;;-2.14;74.89
26978;BME280;56314;48.088;11.642;2023-02-28T08:53:31;95964.75;;;-2.23;74.56
26978;BME280;56314;48.088;11.642;2023-02-28T08:56:34;95970.69;;;-2.20;75.24
26978;BME280;56314;48.088;11.642;2023-02-28T08:58:55;95960.09;;;-2.03;75.24
26978;BME280;56314;48.088;11.642;2023-02-28T09:01:26;95972.78;;;-1.92;75.34
26978;BME280;56314;48.088;11.642;2023-02-28T09:03:55;95975.16;;;-1.81;74.40
26978;BME280;56314;48.088;11.642;2023-02-28T09:06:23;95968.09;;;-1.71;73.44
26978;BME280;56314;48.088;11.642;2023-02-28T09:08:48;95977.56;;;-1.72;72.50
26978;BME280;56314;48.088;11.642;2023-02-28T09:11:15;95975.91;;;-1.76;72.64
26978;BME280;56314;48.088;11.642;2023-02-28T09:13:41;95978.53;;;-1.79;72.91
26978;BME280;56314;48.088;11.642;2023-02-28T09:16:09;95975.88;;;-1.74;72.65
26978;BME280;56314;48.088;11.642;2023-02-28T09:18:36;95982.06;;;-1.83;71.65
26978;BME280;56314;48.088;11.642;2023-02-28T09:21:04;95983.63;;;-1.76;71.98
26978;BME280;56314;48.088;11.642;2023-02-28T09:23:29;95979.13;;;-1.64;71.84
26978;BME280;56314;48.088;11.642;2023-02-28T09:25:55;95981.50;;;-1.53;72.76
26978;BME280;56314;48.088;11.642;2023-02-28T09:28:21;95984.00;;;-1.50;72.29
26978;BME280;56314;48.088;11.642;2023-02-28T09:30:50;95983.66;;;-1.33;71.45
26978;BME280;56314;48.088;11.642;2023-02-28T09:33:16;95999.38;;;-1.47;70.29
26978;BME280;56314;48.088;11.642;2023-02-28T09:35:42;95995.06;;;-1.45;70.63
26978;BME280;56314;48.088;11.642;2023-02-28T09:38:09;95997.91;;;-1.59;70.81
26978;BME280;56314;48.088;11.642;2023-02-28T09:40:37;95997.88;;;-1.58;71.84
26978;BME280;56314;48.088;11.642;2023-02-28T09:43:04;96005.47;;;-1.50;72.28
26978;BME280;56314;48.088;11.642;2023-02-28T09:45:34;96008.47;;;-1.28;70.64
26978;BME280;56314;48.088;11.642;2023-02-28T09:48:04;96005.88;;;-1.28;70.87
26978;BME280;56314;48.088;11.642;2023-02-28T09:50:35;96011.63;;;-1.15;70.03
26978;BME280;56314;48.088;11.642;2023-02-28T09:53:06;96006.25;;;-1.05;69.00
26978;BME280;56314;48.088;11.642;2023-02-28T09:55:48;96014.09;;;-1.09;69.40
26978;BME280;56314;48.088;11.642;2023-02-28T09:58:30;96012.91;;;-0.95;69.00
26978;BME280;56314;48.088;11.642;2023-02-28T10:03:47;96017.88;;;-0.86;68.91
26978;BME280;56314;48.088;11.642;2023-02-28T10:06:26;96016.31;;;-0.93;68.88
26978;BME280;56314;48.088;11.642;2023-02-28T10:09:15;96020.56;;;-0.90;68.42
26978;BME280;56314;48.088;11.642;2023-02-28T10:11:43;96018.88;;;-0.93;68.62
26978;BME280;56314;48.088;11.642;2023-02-28T10:14:14;96019.16;;;-1.05;68.96
26978;BME280;56314;48.088;11.642;2023-02-28T10:16:56;96024.41;;;-1.10;69.24
26978;BME280;56314;48.088;11.642;2023-02-28T10:25:22;96018.69;;;-0.84;68.06
26978;BME280;56314;48.088;11.642;2023-02-28T10:27:49;96022.78;;;-0.75;67.90
26978;BME280;56314;48.088;11.642;2023-02-28T10:30:15;96013.84;;;-0.60;68.10
26978;BME280;56314;48.088;11.642;2023-02-28T10:32:50;96027.44;;;-0.53;66.66
26978;BME280;56314;48.088;11.642;2023-02-28T10:35:23;96034.47;;;-0.60;66.81
26978;BME280;56314;48.088;11.642;2023-02-28T10:37:54;96027.50;;;-0.55;66.49
26978;BME280;56314;48.088;11.642;2023-02-28T10:42:56;96022.09;;;-0.09;64.82
26978;BME280;56314;48.088;11.642;2023-02-28T10:45:23;96023.97;;;0.52;63.53
26978;BME280;56314;48.088;11.642;2023-02-28T10:50:50;96018.47;;;2.06;58.70
26978;BME280;56314;48.088;11.642;2023-02-28T10:58:28;96026.31;;;1.78;56.50
26978;BME280;56314;48.088;11.642;2023-02-28T11:00:53;96032.88;;;1.88;57.04
26978;BME280;56314;48.088;11.642;2023-02-28T11:03:32;96024.56;;;2.56;55.86
26978;BME280;56314;48.088;11.642;2023-02-28T11:05:59;96018.69;;;2.76;55.50
26978;BME280;56314;48.088;11.642;2023-02-28T11:08:29;96025.53;;;3.01;54.55
26978;BME280;56314;48.088;11.642;2023-02-28T11:10:56;96034.16;;;3.25;53.21
26978;BME280;56314;48.088;11.642;2023-02-28T11:13:34;96027.06;;;2.83;53.75
26978;BME280;56314;48.088;11.642;2023-02-28T11:16:04;96023.50;;;2.61;54.67
26978;BME280;56314;48.088;11.642;2023-02-28T11:18:43;96032.41;;;2.04;55.77
26978;BME280;56314;48.088;11.642;2023-02-28T11:21:17;96028.59;;;1.87;56.65
26978;BME280;56314;48.088;11.642;2023-02-28T11:23:44;96033.53;;;1.68;57.37
26978;BME280;56314;48.088;11.642;2023-02-28T11:26:10;96028.88;;;1.51;58.25
26978;BME280;56314;48.088;11.642;2023-02-28T11:28:41;96026.25;;;1.79;58.38
26978;BME280;56314;48.088;11.642;2023-02-28T11:33:43;96009.59;;;2.13;57.12
26978;BME280;56314;48.088;11.642;2023-02-28T11:36:31;96011.22;;;2.67;56.77
26978;BME280;56314;48.088;11.642;2023-02-28T11:39:04;96009.22;;;2.99;55.62
26978;BME280;56314;48.088;11.642;2023-02-28T11:44:24;96005.78;;;3.20;54.24
26978;BME280;56314;48.088;11.642;2023-02-28T11:47:00;95998.56;;;3.29;53.34
26978;BME280;56314;48.088;11.642;2023-02-28T11:49:50;95994.63;;;3.18;53.36
26978;BME280;56314;48.088;11.642;2023-02-28T12:11:48;95981.22;;;3.74;52.53
26978;BME280;56314;48.088;11.642;2023-02-28T12:15:05;95983.81;;;3.51;52.74
26978;BME280;56314;48.088;11.642;2023-02-28T12:20:08;95986.91;;;3.17;52.43
26978;BME280;56314;48.088;11.642;2023-02-28T12:22:50;95984.56;;;2.63;54.81
26978;BME280;56314;48.088;11.642;2023-02-28T12:25:43;95978.91;;;2.52;55.24
26978;BME280;56314;48.088;11.642;2023-02-28T12:28:15;95980.66;;;2.51;55.35
26978;BME280;56314;48.088;11.642;2023-02-28T12:30:54;95970.06;;;2.57;56.17
26978;BME280;56314;48.088;11.642;2023-02-28T12:33:26;95972.56;;;2.35;55.98
26978;BME280;56314;48.088;11.642;2023-02-28T12:36:03;95974.44;;;2.06;56.92
26978;BME280;56314;48.088;11.642;2023-02-28T12:38:40;95968.06;;;2.40;56.96
26978;BME280;56314;48.088;11.642;2023-02-28T12:41:14;95966.81;;;2.76;55.99
26978;BME280;56314;48.088;11.642;2023-02-28T12:43:48;95957.28;;;3.22;54.72
26978;BME280;56314;48.088;11.642;2023-02-28T12:46:21;95956.63;;;3.82;53.47
26978;BME280;56314;48.088;11.642;2023-02-28T12:49:02;95949.09;;;3.97;52.03
26978;BME280;56314;48.088;11.642;2023-02-28T12:51:36;95941.03;;;4.03;52.51
26978;BME280;56314;48.088;11.642;2023-02-28T12:54:12;95951.16;;;4.30;51.26
26978;BME280;56314;48.088;11.642;2023-02-28T13:08:20;95941.84;;;4.45;50.77
26978;BME280;56314;48.088;11.642;2023-02-28T13:10:50;95945.72;;;4.15;51.01
26978;BME280;56314;48.088;11.642;2023-02-28T13:13:22;95950.38;;;3.87;53.04
26978;BME280;56314;48.088;11.642;2023-02-28T13:16:08;95952.06;;;3.67;52.73
26978;BME280;56314;48.088;11.642;2023-02-28T13:18:35;95957.94;;;3.50;53.72
26978;BME280;56314;48.088;11.642;2023-02-28T13:21:03;95959.22;;;3.39;53.74
26978;BME280;56314;48.088;11.642;2023-02-28T13:26:17;95952.13;;;2.99;54.80
26978;BME280;56314;48.088;11.642;2023-02-28T13:31:14;95957.16;;;2.80;55.59
26978;BME280;56314;48.088;11.642;2023-02-28T13:36:30;95958.50;;;2.66;56.21
26978;BME280;56314;48.088;11.642;2023-02-28T13:42:24;95954.69;;;2.76;55.65
26978;BME280;56314;48.088;11.642;2023-02-28T13:47:29;95954.38;;;2.84;55.85
26978;BME280;56314;48.088;11.642;2023-02-28T13:52:58;95950.22;;;2.80;56.85
26978;BME280;56314;48.088;11.642;2023-02-28T13:55:53;95962.38;;;2.78;56.20
26978;BME280;56314;48.088;11.642;2023-02-28T13:58:32;95960.69;;;2.77;55.40
26978;BME280;56314;48.088;11.642;2023-02-28T14:04:27;95959.94;;;2.51;57.13
26978;BME280;56314;48.088;11.642;2023-02-28T14:07:01;95952.88;;;2.79;56.86
26978;BME280;56314;48.088;11.642;2023-02-28T14:11:55;95954.09;;;3.14;55.29
26978;BME280;56314;48.088;11.642;2023-02-28T14:17:05;95956.25;;;3.04;55.01
26978;BME280;56314;48.088;11.642;2023-02-28T14:19:34;95957.69;;;3.12;55.01
26978;BME280;56314;48.088;11.642;2023-02-28T14:27:21;95952.53;;;2.88;55.74
26978;BME280;56314;48.088;11.642;2023-02-28T14:32:41;95945.72;;;3.07;56.05
26978;BME280;56314;48.088;11.642;2023-02-28T14:35:22;95951.03;;;3.04;56.38
26978;BME280;56314;48.088;11.642;2023-02-28T14:37:54;95959.94;;;2.97;56.00
26978;BME280;56314;48.088;11.642;2023-02-28T14:40:27;95956.69;;;2.92;55.62
26978;BME280;56314;48.088;11.642;2023-02-28T14:43:02;95951.16;;;3.01;55.84
26978;BME280;56314;48.088;11.642;2023-02-28T14:45:35;95942.97;;;3.12;55.73
26978;BME280;56314;48.088;11.642;2023-02-28T14:48:04;95946.75;;;3.03;56.09
26978;BME280;56314;48.088;11.642;2023-02-28T14:50:35;95950.19;;;3.04;56.10
26978;BME280;56314;48.088;11.642;2023-02-28T14:53:01;95943.47;;;2.98;55.67
26978;BME280;56314;48.088;11.642;2023-02-28T14:55:32;95952.13;;;2.99;56.48
26978;BME280;56314;48.088;11.642;2023-02-28T14:58:04;95951.22;;;3.00;56.20
26978;BME280;56314;48.088;11.642;2023-02-28T15:00:34;95948.13;;;2.90;56.75